Time;durP1;ratioP1;P1;durP2;ratioP2;P2;SDS_P1;SDS_P2;PMS_P1;PMS_P2;Temp;Humidity;BMP_temperature;BMP_pressure;BME280_temperature;BME280_humidity;BME280_pressure;Samples;Min_cycle;Max_cycle;Signal;HPM_P1;HPM_P2
2021/09/23 00:00:22;;;;;;;9.88;8.90;;;;;;;31.80;17.20;94680.81;5097088;28;20051;-69
2021/09/23 00:05:25;;;;;;;9.65;8.65;;;;;;;32.01;17.33;94695.06;5090050;28;20048;-67
2021/09/23 00:07:55;;;;;;;10.07;9.18;;;;;;;31.78;17.46;94691.28;5081297;28;20366;-69
2021/09/23 00:10:27;;;;;;;9.90;9.00;;;;;;;31.79;17.29;94697.44;5075641;28;20048;-70
2021/09/23 00:12:55;;;;;;;9.85;9.00;;;;;;;31.75;17.72;94697.50;5076610;28;20052;-67
2021/09/23 00:15:24;;;;;;;9.13;8.25;;;;;;;31.75;17.72;94697.50;5093438;28;20044;-68
2021/09/23 00:17:55;;;;;;;9.23;8.25;;;;;;;31.82;17.56;94691.22;5078463;28;20044;-69
2021/09/23 00:20:24;;;;;;;8.75;7.95;;;;;;;31.77;17.64;94689.00;5078926;28;20328;-69
2021/09/23 00:22:52;;;;;;;8.35;7.65;;;;;;;31.81;17.28;94686.97;5093805;28;20044;-69
2021/09/23 00:25:19;;;;;;;8.55;7.75;;;;;;;31.75;17.62;94689.41;5084587;28;20047;-69
2021/09/23 00:28:02;;;;;;;7.75;7.05;;;;;;;31.77;17.68;94678.94;5075754;28;20041;-69
2021/09/23 00:30:30;;;;;;;7.63;6.90;;;;;;;31.84;17.72;94684.22;5076331;28;20049;-69
2021/09/23 00:33:11;;;;;;;;;;;;;;;31.77;17.70;94683.59;5065579;28;20051;-70
2021/09/23 00:35:38;;;;;;;8.13;6.72;;;;;;;31.80;17.57;94678.09;5092291;28;19916;-69
2021/09/23 00:38:05;;;;;;;6.95;6.32;;;;;;;31.93;17.58;94674.78;5081915;28;20064;-69
2021/09/23 00:40:32;;;;;;;7.72;7.00;;;;;;;31.76;17.67;94676.66;5075807;28;20048;-69
2021/09/23 00:43:00;;;;;;;7.55;6.80;;;;;;;31.65;17.50;94676.81;5093605;28;20076;-72
2021/09/23 00:45:27;;;;;;;7.40;6.70;;;;;;;31.63;17.92;94679.16;5111756;28;20043;-69
2021/09/23 00:47:55;;;;;;;7.20;6.55;;;;;;;31.75;17.64;94678.59;5098115;28;20446;-72
2021/09/23 00:50:23;;;;;;;6.30;5.70;;;;;;;31.75;17.45;94681.31;5115561;28;20047;-69
2021/09/23 00:52:53;;;;;;;6.80;6.20;;;;;;;31.75;17.70;94667.78;5098479;28;20046;-69
2021/09/23 00:55:20;;;;;;;7.03;6.32;;;;;;;31.84;17.39;94673.41;5037976;28;20063;-69
2021/09/23 00:57:50;;;;;;;6.13;5.53;;;;;;;31.83;17.24;94666.47;5065527;28;20054;-69
2021/09/23 01:00:19;;;;;;;6.07;5.50;;;;;;;31.88;17.37;94665.97;5088327;28;20354;-68
2021/09/23 01:03:15;;;;;;;6.15;5.55;;;;;;;31.77;17.79;94660.03;5085172;28;20051;-69
2021/09/23 01:05:44;;;;;;;6.30;5.70;;;;;;;31.88;17.61;94663.28;5063948;28;20056;-71
2021/09/23 01:08:11;;;;;;;5.32;4.82;;;;;;;31.79;17.34;94665.00;5051582;28;20055;-69
2021/09/23 01:10:38;;;;;;;5.88;5.32;;;;;;;31.62;17.51;94664.13;5082413;28;20047;-69
2021/09/23 01:13:05;;;;;;;5.70;5.20;;;;;;;31.67;17.95;94669.03;5082563;28;20055;-68
2021/09/23 01:15:56;;;;;;;5.70;5.10;;;;;;;31.75;17.61;94662.38;5085185;28;20052;-67
2021/09/23 01:18:33;;;;;;;5.03;4.53;;;;;;;31.57;17.57;94664.59;5059699;28;20044;-69
2021/09/23 01:21:04;;;;;;;4.95;4.55;;;;;;;31.63;17.92;94681.09;5074216;28;20041;-69
2021/09/23 01:23:35;;;;;;;4.85;4.45;;;;;;;31.62;17.84;94666.81;5057398;28;20059;-69
2021/09/23 01:26:05;;;;;;;5.22;4.72;;;;;;;31.64;17.75;94672.59;5075249;28;20049;-66
2021/09/23 01:28:33;;;;;;;4.90;4.50;;;;;;;31.67;17.60;94674.44;5059866;28;20044;-68
2021/09/23 01:31:02;;;;;;;4.55;4.15;;;;;;;31.57;17.79;94670.00;5070900;28;20366;-68
2021/09/23 01:33:37;;;;;;;4.90;4.40;;;;;;;31.64;17.74;94669.13;5076919;28;20052;-68
2021/09/23 01:36:04;;;;;;;4.05;3.65;;;;;;;31.63;18.08;94673.75;5059584;28;20113;-68
2021/09/23 01:38:31;;;;;;;4.05;3.65;;;;;;;31.66;17.74;94672.94;5090100;28;20059;-69
2021/09/23 01:40:59;;;;;;;4.82;4.43;;;;;;;31.70;17.82;94668.22;5077765;28;20052;-68
2021/09/23 01:43:26;;;;;;;4.28;3.88;;;;;;;31.64;17.64;94679.91;5077009;28;20039;-69
2021/09/23 01:45:53;;;;;;;4.50;4.10;;;;;;;31.65;17.55;94687.63;5077046;28;20058;-69
2021/09/23 01:48:20;;;;;;;4.30;3.90;;;;;;;31.55;17.71;94677.78;5076852;28;20039;-68
2021/09/23 01:50:50;;;;;;;4.00;3.67;;;;;;;31.60;17.96;94664.53;5077356;28;20070;-66
2021/09/23 01:53:17;;;;;;;3.70;3.33;;;;;;;31.69;17.61;94658.59;5095013;28;20048;-69
2021/09/23 01:55:44;;;;;;;4.30;3.65;;;;;;;31.62;17.56;94666.06;5060132;28;20051;-69
2021/09/23 01:58:13;;;;;;;4.15;3.70;;;;;;;31.62;17.80;94661.44;5069443;28;20044;-68
2021/09/23 02:00:41;;;;;;;3.60;3.30;;;;;;;31.58;17.65;94660.72;5075955;28;20046;-69
2021/09/23 02:03:09;;;;;;;3.67;3.38;;;;;;;31.76;17.55;94660.44;5089574;28;20051;-69
2021/09/23 02:06:00;;;;;;;3.78;3.47;;;;;;;31.61;17.93;94665.31;5072504;28;20068;-69
2021/09/23 02:08:27;;;;;;;3.63;3.33;;;;;;;31.59;17.90;94665.72;5083822;28;20326;-69
2021/09/23 02:10:54;;;;;;;3.45;3.15;;;;;;;31.69;17.92;94666.69;5091123;28;20063;-68
2021/09/23 02:13:26;;;;;;;3.47;3.17;;;;;;;31.69;17.49;94665.94;5058400;28;20051;-67
2021/09/23 02:15:53;;;;;;;3.40;3.10;;;;;;;31.74;17.56;94668.19;5091808;28;20051;-69
2021/09/23 02:18:20;;;;;;;3.88;3.50;;;;;;;31.71;17.99;94664.38;5096385;28;20044;-68
2021/09/23 02:20:48;;;;;;;3.50;3.20;;;;;;;31.57;18.02;94659.22;5097125;28;20048;-69
2021/09/23 02:23:15;;;;;;;3.45;3.15;;;;;;;31.74;17.70;94660.81;5097405;28;20039;-69
2021/09/23 02:25:43;;;;;;;3.30;3.00;;;;;;;31.74;18.11;94668.94;5080805;28;20070;-69
2021/09/23 02:28:11;;;;;;;3.35;3.05;;;;;;;31.66;17.95;94666.75;5095611;28;20040;-68
2021/09/23 02:30:38;;;;;;;4.15;3.10;;;;;;;31.60;18.07;94669.19;5098869;28;20052;-66
2021/09/23 02:33:05;;;;;;;3.75;3.22;;;;;;;31.69;17.69;94665.94;5076103;28;20052;-64
2021/09/23 02:35:33;;;;;;;3.65;3.35;;;;;;;31.64;17.74;94661.00;5077388;28;20055;-69
2021/09/23 02:38:00;;;;;;;3.42;3.13;;;;;;;31.74;17.91;94668.19;5083243;28;20071;-69
2021/09/23 02:40:28;;;;;;;3.88;3.50;;;;;;;31.59;18.08;94664.97;5085758;28;20461;-68
2021/09/23 02:42:55;;;;;;;3.53;3.22;;;;;;;31.76;17.86;94666.59;5076272;28;20051;-69
2021/09/23 02:45:22;;;;;;;4.35;3.60;;;;;;;31.77;17.74;94668.13;5070006;28;20398;-69
2021/09/23 02:47:49;;;;;;;4.40;4.00;;;;;;;31.66;17.67;94667.53;5089568;28;20047;-69
2021/09/23 02:50:16;;;;;;;3.78;3.47;;;;;;;31.64;17.87;94664.47;5085253;28;20052;-70
2021/09/23 02:52:43;;;;;;;4.53;4.13;;;;;;;31.66;17.55;94667.53;5077241;28;20063;-68
2021/09/23 02:55:10;;;;;;;4.88;4.38;;;;;;;31.75;17.49;94675.09;5060379;28;20366;-68
2021/09/23 02:57:37;;;;;;;5.20;4.70;;;;;;;31.71;17.68;94675.16;5097928;28;20056;-68
2021/09/23 03:00:05;;;;;;;4.50;4.10;;;;;;;31.61;18.12;94668.00;5080017;28;20047;-69
2021/09/23 03:02:32;;;;;;;5.40;4.90;;;;;;;31.69;17.94;94671.34;5078509;28;20051;-68
2021/09/23 03:04:59;;;;;;;5.45;4.95;;;;;;;31.67;17.95;94674.44;5086032;28;20115;-67
2021/09/23 03:07:27;;;;;;;5.38;4.88;;;;;;;31.67;17.98;94669.03;5074638;28;20068;-69
2021/09/23 03:09:54;;;;;;;5.95;5.45;;;;;;;31.62;17.75;94672.22;5059249;28;20040;-72
2021/09/23 03:12:21;;;;;;;6.07;5.47;;;;;;;31.81;17.60;94673.47;5059365;28;20050;-70
2021/09/23 03:14:48;;;;;;;6.35;5.75;;;;;;;31.58;17.85;94676.94;5059753;28;20048;-69
2021/09/23 03:17:15;;;;;;;6.43;5.82;;;;;;;31.82;17.52;94675.00;5075107;28;20051;-69
2021/09/23 03:19:42;;;;;;;6.43;5.90;;;;;;;31.71;17.63;94675.16;5073967;28;20048;-69
2021/09/23 03:22:10;;;;;;;6.88;6.25;;;;;;;31.58;17.95;94687.75;5079125;28;20047;-66
2021/09/23 03:24:37;;;;;;;6.65;6.05;;;;;;;31.69;17.57;94676.75;5079850;28;20054;-67
2021/09/23 03:27:04;;;;;;;6.90;6.30;;;;;;;31.62;17.86;94679.56;5079618;28;20048;-70
2021/09/23 03:29:31;;;;;;;7.40;6.68;;;;;;;31.73;17.83;94672.06;5096407;28;20044;-69
2021/09/23 03:31:58;;;;;;;7.90;7.10;;;;;;;31.74;17.90;94671.63;5079971;28;20043;-68
2021/09/23 03:34:25;;;;;;;7.72;6.90;;;;;;;31.74;17.98;94678.97;5097753;28;20044;-69
2021/09/23 03:36:52;;;;;;;7.90;7.10;;;;;;;31.76;17.42;94672.00;5076577;28;20451;-68
2021/09/23 03:39:19;;;;;;;8.18;7.45;;;;;;;31.89;17.65;94664.81;5096208;28;20052;-70
2021/09/23 03:41:47;;;;;;;7.57;6.88;;;;;;;31.60;18.07;94663.78;5097019;28;20047;-69
2021/09/23 03:44:14;;;;;;;8.55;7.75;;;;;;;31.71;17.62;94664.38;5097682;28;20063;-69
2021/09/23 03:46:42;;;;;;;7.95;7.15;;;;;;;31.68;17.81;94659.00;5067130;28;20451;-68
2021/09/23 03:49:10;;;;;;;8.57;7.78;;;;;;;31.78;17.79;94653.44;5059291;28;20048;-69
2021/09/23 03:51:37;;;;;;;8.77;7.88;;;;;;;31.80;17.61;94655.72;5078865;28;20059;-69
2021/09/23 03:54:04;;;;;;;8.63;7.75;;;;;;;31.87;17.96;94664.44;5067728;28;20047;-69
2021/09/23 03:56:31;;;;;;;8.45;7.60;;;;;;;31.96;17.77;94660.44;5086845;28;20051;-69
2021/09/23 03:58:58;;;;;;;8.63;7.78;;;;;;;31.81;17.75;94674.22;5097012;28;20367;-68
2021/09/23 04:01:26;;;;;;;8.48;7.68;;;;;;;31.77;17.77;94684.34;5078395;28;20056;-69
2021/09/23 04:03:53;;;;;;;8.95;7.78;;;;;;;31.95;17.58;94675.88;5073991;28;20044;-69
2021/09/23 04:06:21;;;;;;;8.23;7.43;;;;;;;31.78;17.97;94682.41;5078418;28;20059;-69
2021/09/23 04:08:49;;;;;;;8.63;7.72;;;;;;;31.79;17.53;94687.41;5077030;28;20069;-69
2021/09/23 04:11:17;;;;;;;8.43;7.63;;;;;;;31.84;17.79;94691.56;5059936;28;20470;-69
2021/09/23 04:13:45;;;;;;;7.78;6.97;;;;;;;31.81;17.53;94685.03;5057667;28;20056;-69
2021/09/23 04:16:13;;;;;;;8.10;7.35;;;;;;;31.83;17.66;94692.72;5068901;28;20044;-68
2021/09/23 04:18:40;;;;;;;8.48;7.28;;;;;;;31.91;17.89;94696.81;5077894;28;20044;-68
2021/09/23 04:21:07;;;;;;;7.50;6.68;;;;;;;31.88;17.72;94701.13;5066848;28;20049;-69
2021/09/23 04:23:35;;;;;;;7.70;7.00;;;;;;;31.81;17.79;94717.47;5078544;28;20035;-69
2021/09/23 04:26:04;;;;;;;7.90;7.20;;;;;;;31.88;17.68;94701.13;5071992;28;20374;-70
2021/09/23 04:28:31;;;;;;;6.93;6.22;;;;;;;31.88;17.44;94701.13;5096342;28;20063;-69
2021/09/23 04:30:59;;;;;;;7.40;6.70;;;;;;;31.82;17.88;94697.38;5096148;28;20055;-68
2021/09/23 04:33:32;;;;;;;7.15;6.40;;;;;;;31.92;18.16;94695.63;5060337;28;20044;-68
2021/09/23 04:35:59;;;;;;;9.52;8.07;;;;;;;31.71;18.19;94702.19;5088572;28;20048;-69
2021/09/23 04:38:29;;;;;;;13.95;12.52;;;;;;;34.30;17.08;94711.03;5066875;28;20052;-70
2021/09/23 04:40:57;;;;;;;13.13;11.77;;;;;;;31.97;18.63;94710.59;5075878;28;20059;-50
2021/09/23 04:43:24;;;;;;;15.98;12.43;;;;;;;32.20;18.82;94721.34;5065699;28;21272;-59
2021/09/23 04:45:53;;;;;;;17.13;13.40;;;;;;;32.00;18.61;94717.88;5092866;28;20048;-70
2021/09/23 04:48:20;;;;;;;15.98;13.88;;;;;;;32.09;18.75;94728.94;5058068;28;20052;-57
2021/09/23 04:50:48;;;;;;;14.88;11.35;;;;;;;32.16;18.23;94737.66;5070220;28;20059;-71
2021/09/23 04:53:17;;;;;;;13.27;11.20;;;;;;;32.63;18.04;94742.16;5063629;28;20060;-72
2021/09/23 04:55:44;;;;;;;18.58;16.67;;;;;;;34.36;17.14;94752.03;5071739;28;20047;-71
2021/09/23 04:58:11;;;;;;;23.52;20.58;;;;;;;35.32;16.45;94754.59;5081526;28;20370;-72
2021/09/23 05:00:38;;;;;;;18.27;16.33;;;;;;;32.12;18.69;94753.19;5075925;28;20459;-71
2021/09/23 05:03:07;;;;;;;15.48;13.13;;;;;;;31.81;18.61;94755.31;5075370;28;20059;-68
2021/09/23 05:05:34;;;;;;;11.70;10.60;;;;;;;31.83;18.53;94763.75;5074956;28;20048;-71
2021/09/23 05:08:04;;;;;;;13.73;9.98;;;;;;;31.97;18.19;94764.66;5057412;28;20044;-70
2021/09/23 05:10:35;;;;;;;10.50;9.32;;;;;;;32.03;18.03;94777.31;5093149;28;20055;-71
2021/09/23 05:13:04;;;;;;;9.55;7.72;;;;;;;32.10;18.10;94771.00;5063240;28;20048;-71
2021/09/23 05:15:31;;;;;;;7.13;6.43;;;;;;;32.07;17.75;94771.84;5074383;28;20048;-71
2021/09/23 05:17:59;;;;;;;10.00;6.80;;;;;;;32.05;17.97;94779.59;5074517;28;20040;-70
2021/09/23 05:20:26;;;;;;;6.88;6.18;;;;;;;32.22;17.52;94778.50;5075335;28;20461;-70
2021/09/23 05:22:53;;;;;;;7.80;6.00;;;;;;;32.16;17.36;94778.22;5075019;28;20059;-70
2021/09/23 05:25:21;;;;;;;5.65;5.15;;;;;;;32.28;17.26;94776.88;5074290;28;20067;-69
2021/09/23 05:27:48;;;;;;;6.32;5.70;;;;;;;32.27;17.51;94791.59;5085311;28;20043;-69
2021/09/23 05:30:15;;;;;;;6.47;5.70;;;;;;;32.38;17.40;94792.13;5079970;28;20036;-71
2021/09/23 05:32:42;;;;;;;5.63;5.13;;;;;;;32.38;16.94;94802.19;5073941;28;20040;-71
2021/09/23 05:35:10;;;;;;;5.60;5.10;;;;;;;32.28;17.13;94803.94;5075091;28;20048;-71
2021/09/23 05:37:39;;;;;;;5.43;4.55;;;;;;;32.33;17.16;94795.34;5083574;28;20059;-69
2021/09/23 05:40:07;;;;;;;5.32;4.82;;;;;;;32.35;17.15;94803.78;5079357;28;20048;-70
2021/09/23 05:42:34;;;;;;;4.40;4.00;;;;;;;32.33;17.12;94808.84;5074551;28;20059;-70
2021/09/23 05:45:02;;;;;;;4.72;4.25;;;;;;;32.24;17.12;94799.72;5080929;28;20051;-69
2021/09/23 05:47:29;;;;;;;4.80;4.30;;;;;;;32.17;17.01;94803.31;5071405;28;20047;-70
2021/09/23 05:49:56;;;;;;;4.53;4.13;;;;;;;32.21;17.40;94807.47;5095105;28;20071;-70
2021/09/23 05:52:23;;;;;;;5.63;4.30;;;;;;;32.31;16.80;94803.09;5094936;28;20056;-71
2021/09/23 05:54:50;;;;;;;4.57;4.18;;;;;;;32.20;17.34;94807.91;5095160;28;20043;-71
2021/09/23 05:57:22;;;;;;;4.25;3.85;;;;;;;32.29;16.87;94810.88;5082502;28;20048;-71
2021/09/23 05:59:50;;;;;;;4.50;4.10;;;;;;;32.34;17.13;94813.09;5085334;28;20689;-71
2021/09/23 06:02:18;;;;;;;5.65;4.30;;;;;;;32.19;17.09;94814.50;5090830;28;20048;-71
2021/09/23 06:04:45;;;;;;;4.45;4.05;;;;;;;32.26;17.21;94817.09;5077446;28;20052;-71
2021/09/23 06:07:13;;;;;;;4.97;4.50;;;;;;;32.27;17.25;94828.66;5075952;28;20053;-71
2021/09/23 06:09:40;;;;;;;4.63;4.13;;;;;;;32.43;17.09;94821.41;5094885;28;20383;-71
2021/09/23 06:12:08;;;;;;;4.50;4.10;;;;;;;32.51;16.79;94817.38;5094821;28;20048;-70
2021/09/23 06:14:36;;;;;;;4.65;4.22;;;;;;;32.58;16.42;94827.31;5077105;28;20460;-71
2021/09/23 06:17:04;;;;;;;4.93;4.25;;;;;;;32.50;16.50;94821.25;5083625;28;20049;-70
2021/09/23 06:19:31;;;;;;;4.80;4.40;;;;;;;32.63;16.47;94834.19;5073723;28;20045;-70
2021/09/23 06:21:58;;;;;;;5.00;4.50;;;;;;;32.62;16.75;94827.25;5074527;28;20045;-70
2021/09/23 06:24:25;;;;;;;4.68;4.20;;;;;;;32.75;16.65;94825.41;5073703;28;20447;-70
2021/09/23 06:26:52;;;;;;;4.50;4.10;;;;;;;32.99;16.19;94824.16;5082453;28;20051;-71
2021/09/23 06:29:20;;;;;;;4.35;3.85;;;;;;;32.92;16.54;94821.63;5093595;28;20059;-72
2021/09/23 06:31:47;;;;;;;4.47;4.07;;;;;;;33.25;16.18;94818.97;5094798;28;20048;-72
2021/09/23 06:34:14;;;;;;;4.70;4.13;;;;;;;33.82;15.60;94828.50;5073319;28;20502;-72
2021/09/23 06:36:41;;;;;;;4.40;3.78;;;;;;;34.06;15.59;94827.16;5068683;28;20063;-73
2021/09/23 06:39:09;;;;;;;4.38;3.97;;;;;;;34.45;15.09;94828.13;5073641;28;20083;-70
2021/09/23 06:41:36;;;;;;;4.18;3.83;;;;;;;34.41;15.00;94833.66;5073608;28;20056;-72
2021/09/23 06:44:05;;;;;;;4.60;4.20;;;;;;;34.53;14.87;94832.16;5074474;28;20447;-72
2021/09/23 06:46:32;;;;;;;4.30;3.90;;;;;;;34.54;15.30;94828.25;5078755;28;20048;-71
2021/09/23 06:48:59;;;;;;;4.22;3.92;;;;;;;34.15;15.15;94840.13;5076308;28;20526;-72
2021/09/23 06:51:27;;;;;;;4.88;4.47;;;;;;;33.95;15.28;94840.22;5094535;28;20447;-72
2021/09/23 06:53:56;;;;;;;4.70;4.30;;;;;;;33.87;15.26;94838.91;5093939;28;20052;-72
2021/09/23 06:56:23;;;;;;;5.43;3.90;;;;;;;33.86;15.11;94831.94;5090417;28;20052;-72
2021/09/23 06:58:50;;;;;;;4.80;4.40;;;;;;;33.57;15.48;94840.72;5087231;28;20442;-71
2021/09/23 07:01:37;;;;;;;5.55;4.18;;;;;;;33.53;15.44;94847.41;5093696;28;20051;-71
2021/09/23 07:04:16;;;;;;;4.85;4.45;;;;;;;33.55;15.54;94858.56;5094439;28;20054;-71
2021/09/23 07:07:01;;;;;;;5.75;5.25;;;;;;;33.54;15.25;94846.97;5075514;28;20067;-71
2021/09/23 07:09:36;;;;;;;5.05;4.53;;;;;;;33.50;15.44;94850.97;5056848;28;20040;-72
2021/09/23 07:12:13;;;;;;;5.53;5.03;;;;;;;33.41;15.49;94854.25;5056485;28;20048;-71
2021/09/23 07:14:41;;;;;;;5.65;5.05;;;;;;;33.38;15.20;94855.09;5058604;28;20040;-70
2021/09/23 07:17:08;;;;;;;5.35;4.85;;;;;;;33.19;15.86;94848.50;5059121;28;20056;-71
2021/09/23 07:19:35;;;;;;;6.05;5.55;;;;;;;33.13;15.39;94852.16;5077178;28;20040;-71
2021/09/23 07:22:04;;;;;;;6.60;5.32;;;;;;;33.30;15.52;94853.69;5059875;28;20045;-71
2021/09/23 07:24:31;;;;;;;6.35;5.70;;;;;;;33.26;15.79;94847.59;5077662;28;20041;-71
2021/09/23 07:26:58;;;;;;;6.25;5.05;;;;;;;33.29;15.42;94838.63;5061823;28;20052;-70
2021/09/23 07:29:25;;;;;;;6.05;5.45;;;;;;;33.57;15.72;94846.16;5076106;28;20036;-70
2021/09/23 07:31:55;;;;;;;6.30;5.70;;;;;;;33.50;15.22;94840.88;5059943;28;20040;-71
2021/09/23 07:34:22;;;;;;;5.78;4.90;;;;;;;33.35;15.07;94840.47;5077465;28;20490;-70
2021/09/23 07:36:49;;;;;;;5.10;4.70;;;;;;;33.47;15.02;94824.72;5081952;28;20044;-71
2021/09/23 07:39:16;;;;;;;5.28;4.78;;;;;;;33.44;15.02;94830.97;5096424;28;20056;-72
2021/09/23 07:41:44;;;;;;;5.32;4.75;;;;;;;33.38;15.07;94828.00;5097435;28;20044;-72
2021/09/23 07:44:14;;;;;;;4.60;4.20;;;;;;;33.69;14.84;94831.91;5079821;28;20047;-71
2021/09/23 07:46:42;;;;;;;4.88;4.43;;;;;;;33.68;14.69;94824.22;5075611;28;20045;-71
2021/09/23 07:49:09;;;;;;;4.70;4.20;;;;;;;33.77;15.03;94824.38;5058370;28;20048;-70
2021/09/23 07:51:37;;;;;;;4.65;4.25;;;;;;;34.81;13.60;94817.03;5076631;28;20040;-71
2021/09/23 07:54:04;;;;;;;4.68;3.88;;;;;;;33.96;14.25;94817.34;5091388;28;20048;-71
2021/09/23 07:56:34;;;;;;;4.15;3.70;;;;;;;33.77;14.90;94815.47;5078390;28;20212;-71
2021/09/23 07:59:01;;;;;;;4.38;3.97;;;;;;;33.76;14.63;94813.94;5078116;28;20051;-72
2021/09/23 08:01:29;;;;;;;4.10;3.70;;;;;;;33.64;14.22;94812.69;5078757;28;20405;-71
2021/09/23 08:04:00;;;;;;;4.18;3.72;;;;;;;33.63;14.28;94817.34;5079298;28;20381;-69
2021/09/23 08:06:27;;;;;;;3.85;3.45;;;;;;;33.83;14.07;94819.19;5078417;28;20082;-71
2021/09/23 08:08:57;;;;;;;4.15;3.78;;;;;;;34.04;14.58;94821.41;5087995;28;20443;-71
2021/09/23 08:11:25;;;;;;;3.65;3.35;;;;;;;33.82;14.48;94823.84;5077377;28;20040;-72
2021/09/23 08:13:56;;;;;;;3.20;2.88;;;;;;;33.98;13.90;94825.81;5063241;28;20048;-71
2021/09/23 08:16:24;;;;;;;3.78;3.13;;;;;;;33.81;14.18;94824.28;5078420;28;20055;-70
2021/09/23 08:19:26;;;;;;;3.47;3.17;;;;;;;33.75;14.34;94828.69;5016329;28;20053;-71
2021/09/23 08:22:32;;;;;;;3.45;3.13;;;;;;;33.67;14.26;94834.28;4995300;28;20050;-71
2021/09/23 08:25:00;;;;;;;3.70;3.40;;;;;;;33.63;14.00;94839.03;4978630;28;20077;-70
2021/09/23 08:27:27;;;;;;;6.40;2.92;;;;;;;33.63;13.68;94839.03;5017323;28;20040;-71
2021/09/23 08:29:55;;;;;;;3.67;2.97;;;;;;;33.80;14.14;94837.06;5071528;28;20390;-71
2021/09/23 08:32:22;;;;;;;3.78;3.15;;;;;;;33.89;13.96;94841.94;5057822;28;20044;-71
2021/09/23 08:34:51;;;;;;;3.30;2.97;;;;;;;33.92;13.60;94839.13;5076245;28;20047;-71
2021/09/23 08:37:18;;;;;;;3.75;3.17;;;;;;;33.84;13.84;94842.47;5072472;28;20056;-71
2021/09/23 08:39:46;;;;;;;3.33;3.03;;;;;;;33.94;14.00;94836.00;5094467;28;20044;-72
2021/09/23 08:42:14;;;;;;;2.90;2.70;;;;;;;34.15;13.67;94835.47;5096312;28;20340;-71
2021/09/23 08:44:42;;;;;;;4.05;3.08;;;;;;;34.43;13.97;94841.38;5077622;28;20047;-69
2021/09/23 08:47:09;;;;;;;3.22;2.90;;;;;;;34.26;13.91;94838.66;5095887;28;20114;-71
2021/09/23 08:49:37;;;;;;;3.33;3.03;;;;;;;34.28;13.56;94854.50;5093188;28;20091;-73
2021/09/23 08:52:05;;;;;;;2.97;2.78;;;;;;;34.33;13.36;94834.97;5057481;28;20059;-71
2021/09/23 08:54:32;;;;;;;3.92;3.20;;;;;;;34.23;13.64;94839.50;5058521;28;20059;-68
2021/09/23 08:57:01;;;;;;;3.03;2.80;;;;;;;34.39;13.30;94829.84;5074805;28;20056;-71
2021/09/23 08:59:30;;;;;;;3.38;2.90;;;;;;;34.63;13.25;94833.84;5068489;28;20047;-71
2021/09/23 09:01:57;;;;;;;3.35;3.05;;;;;;;34.57;12.94;94836.28;5077347;28;20048;-71
2021/09/23 09:04:35;;;;;;;2.90;2.70;;;;;;;34.79;13.03;94833.75;5062100;28;20040;-72
2021/09/23 09:07:29;;;;;;;3.00;2.80;;;;;;;34.90;12.99;94828.81;5072285;28;20044;-71
2021/09/23 09:10:15;;;;;;;2.90;2.67;;;;;;;35.28;12.88;94830.81;5082796;28;20363;-70
2021/09/23 09:12:45;;;;;;;3.03;2.72;;;;;;;35.30;12.67;94839.28;5074385;28;20044;-72
2021/09/23 09:15:14;;;;;;;3.08;2.88;;;;;;;35.45;12.60;94837.69;5041526;28;20367;-71
2021/09/23 09:17:42;;;;;;;2.95;2.65;;;;;;;35.39;12.52;94825.81;5076387;28;20055;-71
2021/09/23 09:20:10;;;;;;;3.05;2.83;;;;;;;35.91;12.36;94829.25;5070990;28;20044;-68
2021/09/23 09:22:37;;;;;;;4.28;2.90;;;;;;;35.89;12.50;94837.09;5077084;28;20486;-71
2021/09/23 09:25:10;;;;;;;3.38;3.08;;;;;;;36.02;12.51;94849.50;5076742;28;20044;-69
2021/09/23 09:27:44;;;;;;;3.13;2.83;;;;;;;36.18;12.26;94839.66;5057894;28;20060;-70
2021/09/23 09:30:22;;;;;;;2.75;2.53;;;;;;;36.01;11.96;94847.97;5081551;28;20427;-70
2021/09/23 09:32:52;;;;;;;3.00;2.75;;;;;;;36.33;11.79;94843.44;5077384;28;20066;-71
2021/09/23 09:35:30;;;;;;;3.05;2.85;;;;;;;36.53;11.68;94841.19;5094545;28;20074;-71
2021/09/23 09:38:01;;;;;;;3.22;2.92;;;;;;;36.52;12.11;94838.91;5075043;28;20060;-72
2021/09/23 09:40:35;;;;;;;3.55;3.10;;;;;;;36.29;11.67;94840.06;5069353;28;20048;-72
2021/09/23 09:43:11;;;;;;;3.15;2.95;;;;;;;36.32;11.61;94833.75;5077468;28;20397;-71
2021/09/23 09:45:41;;;;;;;3.30;3.00;;;;;;;36.10;12.12;94837.16;5076658;28;20047;-71
2021/09/23 09:48:10;;;;;;;3.60;2.75;;;;;;;36.32;12.12;94833.75;5077183;28;20044;-71
2021/09/23 09:50:38;;;;;;;3.95;3.10;;;;;;;36.94;12.44;94839.34;5072241;28;20051;-71
2021/09/23 09:53:11;;;;;;;3.55;3.10;;;;;;;36.17;12.34;94833.44;5057059;28;20389;-71
2021/09/23 09:55:42;;;;;;;4.07;3.05;;;;;;;36.37;12.64;94825.78;5073563;28;20064;-71
2021/09/23 09:58:12;;;;;;;5.20;2.97;;;;;;;37.07;11.64;94826.41;5068657;28;20052;-71
2021/09/23 10:00:42;;;;;;;3.08;2.55;;;;;;;36.23;12.00;94815.38;5057026;28;20040;-71
2021/09/23 10:03:09;;;;;;;4.10;2.90;;;;;;;35.41;13.25;94812.59;5074605;28;20379;-71
2021/09/23 10:05:43;;;;;;;4.13;3.53;;;;;;;35.04;13.71;94816.00;5069637;28;20079;-71
2021/09/23 10:08:11;;;;;;;6.53;3.55;;;;;;;37.47;12.18;94817.50;5038639;28;20056;-70
2021/09/23 10:10:40;;;;;;;8.70;3.25;;;;;;;35.88;13.15;94809.16;5044405;28;20629;-71
2021/09/23 10:13:09;;;;;;;3.38;3.08;;;;;;;35.51;13.60;94818.88;5037218;28;20055;-71
2021/09/23 10:15:38;;;;;;;2.95;2.72;;;;;;;36.75;12.67;94822.13;5037242;28;20049;-71
2021/09/23 10:18:06;;;;;;;3.10;2.80;;;;;;;36.33;12.75;94818.94;5043750;28;20053;-69
2021/09/23 10:20:38;;;;;;;4.45;3.05;;;;;;;37.25;12.69;94818.34;5044023;28;20056;-71
2021/09/23 10:23:07;;;;;;;3.17;2.88;;;;;;;37.26;12.77;94816.38;5036466;28;20049;-72
2021/09/23 10:25:36;;;;;;;2.92;2.60;;;;;;;36.54;13.53;94812.00;5037169;28;20044;-72
2021/09/23 10:28:08;;;;;;;2.85;2.65;;;;;;;36.38;12.79;94818.38;5053382;28;20049;-70
2021/09/23 10:30:44;;;;;;;2.95;2.70;;;;;;;38.29;12.13;94809.53;5026812;28;20351;-72
2021/09/23 10:33:18;;;;;;;3.13;2.83;;;;;;;37.11;12.88;94816.13;5056275;28;20497;-69
2021/09/23 10:35:46;;;;;;;3.10;2.80;;;;;;;36.77;13.06;94808.81;5056246;28;20049;-72
2021/09/23 10:38:21;;;;;;;3.03;2.20;;;;;;;36.67;13.21;94807.97;5048300;28;20383;-71
2021/09/23 10:40:49;;;;;;;2.92;2.60;;;;;;;37.06;12.68;94803.09;5039862;28;20055;-72
2021/09/23 10:43:18;;;;;;;3.05;2.60;;;;;;;36.83;12.42;94801.63;5056739;28;20052;-70
2021/09/23 10:45:51;;;;;;;2.75;2.50;;;;;;;37.09;12.25;94804.91;5055583;28;20040;-70
2021/09/23 10:48:20;;;;;;;2.85;2.05;;;;;;;37.21;12.34;94809.50;5036659;28;20045;-70
2021/09/23 10:50:49;;;;;;;2.38;2.13;;;;;;;37.42;12.31;94813.41;5053280;28;20041;-70
2021/09/23 10:53:17;;;;;;;2.83;2.10;;;;;;;36.86;12.21;94810.84;5060549;28;20052;-70
2021/09/23 10:56:03;;;;;;;2.40;2.20;;;;;;;36.48;12.71;94803.66;5060192;28;20044;-70
2021/09/23 10:58:35;;;;;;;2.50;2.30;;;;;;;36.21;12.67;94812.34;5056929;28;20055;-70
2021/09/23 11:01:03;;;;;;;2.53;2.13;;;;;;;36.43;12.40;94809.63;5086971;28;20059;-70
2021/09/23 11:03:38;;;;;;;2.17;1.95;;;;;;;36.80;12.49;94809.91;5072763;28;20044;-70
2021/09/23 11:06:11;;;;;;;2.10;1.90;;;;;;;36.78;12.21;94799.47;5056202;28;20083;-71
2021/09/23 11:08:44;;;;;;;18.35;2.30;;;;;;;35.69;12.72;94807.44;5050685;28;20479;-71
2021/09/23 11:11:12;;;;;;;2.08;1.92;;;;;;;36.41;12.62;94804.63;5040340;28;20048;-71
2021/09/23 11:13:41;;;;;;;2.00;1.90;;;;;;;36.08;12.49;94790.59;5056344;28;20044;-71
2021/09/23 11:16:12;;;;;;;2.15;1.95;;;;;;;36.48;12.17;94798.19;5063383;28;20044;-70
2021/09/23 11:18:41;;;;;;;2.42;1.90;;;;;;;35.17;13.02;94792.34;5024045;28;20052;-72
2021/09/23 11:21:09;;;;;;;2.20;2.00;;;;;;;35.70;12.68;94789.94;5039938;28;20049;-70
2021/09/23 11:23:37;;;;;;;2.72;2.20;;;;;;;35.48;13.00;94790.59;5023733;28;20060;-71
2021/09/23 11:26:05;;;;;;;2.08;1.88;;;;;;;36.54;11.84;94796.41;5075322;28;20052;-71
2021/09/23 11:28:32;;;;;;;2.20;2.00;;;;;;;37.07;11.48;94787.50;5055663;28;20045;-73
2021/09/23 11:31:00;;;;;;;2.22;2.03;;;;;;;37.06;11.44;94786.75;5040033;28;20040;-72
2021/09/23 11:33:29;;;;;;;2.13;1.90;;;;;;;35.69;12.46;94782.97;5039773;28;20049;-71
2021/09/23 11:35:57;;;;;;;2.60;2.20;;;;;;;35.36;12.86;94769.63;5050274;28;20052;-70
2021/09/23 11:38:26;;;;;;;4.85;2.17;;;;;;;35.16;12.53;94777.25;5049694;28;20056;-71
2021/09/23 11:40:58;;;;;;;2.17;1.95;;;;;;;35.36;12.18;94785.94;5049963;28;20048;-71
2021/09/23 11:43:29;;;;;;;3.00;2.15;;;;;;;35.54;12.15;94783.41;5039570;28;20045;-72